sensor_id;sensor_type;location;lat;lon;timestamp;pressure;altitude;pressure_sealevel;temperature;humidity
52249;BME280;38541;48.130;8.378;2023-08-20T00:01:20;93298.72;;;20.02;69.84
52249;BME280;38541;48.130;8.378;2023-08-20T00:03:49;93296.81;;;20.02;70.36
52249;BME280;38541;48.130;8.378;2023-08-20T00:06:16;93297.59;;;19.94;69.80
52249;BME280;38541;48.130;8.378;2023-08-20T00:08:43;93287.81;;;19.89;70.16
52249;BME280;38541;48.130;8.378;2023-08-20T00:11:11;93287.31;;;19.87;69.84
52249;BME280;38541;48.130;8.378;2023-08-20T00:13:38;93291.53;;;19.79;69.62
52249;BME280;38541;48.130;8.378;2023-08-20T00:16:05;93294.00;;;19.76;69.79
52249;BME280;38541;48.130;8.378;2023-08-20T00:18:32;93289.91;;;19.70;70.38
52249;BME280;38541;48.130;8.378;2023-08-20T00:21:02;93297.09;;;19.69;70.48
52249;BME280;38541;48.130;8.378;2023-08-20T00:23:29;93297.59;;;19.71;70.85
52249;BME280;38541;48.130;8.378;2023-08-20T00:25:56;93299.00;;;19.68;70.92
52249;BME280;38541;48.130;8.378;2023-08-20T00:28:22;93292.53;;;19.61;70.85
52249;BME280;38541;48.130;8.378;2023-08-20T00:30:49;93292.53;;;19.61;70.63
52249;BME280;38541;48.130;8.378;2023-08-20T00:33:15;93290.63;;;19.61;71.28
52249;BME280;38541;48.130;8.378;2023-08-20T00:35:42;93289.06;;;19.60;71.46
52249;BME280;38541;48.130;8.378;2023-08-20T00:38:08;93296.56;;;19.58;71.72
52249;BME280;38541;48.130;8.378;2023-08-20T00:40:35;93295.38;;;19.64;71.44
52249;BME280;38541;48.130;8.378;2023-08-20T00:43:01;93301.91;;;19.58;70.55
52249;BME280;38541;48.130;8.378;2023-08-20T00:45:28;93300.16;;;19.53;70.96
52249;BME280;38541;48.130;8.378;2023-08-20T00:47:56;93292.59;;;19.47;71.53
52249;BME280;38541;48.130;8.378;2023-08-20T00:50:23;93293.69;;;19.46;71.90
52249;BME280;38541;48.130;8.378;2023-08-20T00:52:49;93300.59;;;19.47;72.30
52249;BME280;38541;48.130;8.378;2023-08-20T00:55:16;93296.50;;;19.49;72.14
52249;BME280;38541;48.130;8.378;2023-08-20T00:57:43;93298.41;;;19.49;72.10
52249;BME280;38541;48.130;8.378;2023-08-20T01:00:11;93299.03;;;19.46;71.70
52249;BME280;38541;48.130;8.378;2023-08-20T01:02:38;93288.38;;;19.46;71.32
52249;BME280;38541;48.130;8.378;2023-08-20T01:05:07;93285.22;;;19.44;71.23
52249;BME280;38541;48.130;8.378;2023-08-20T01:13:15;93278.84;;;19.31;71.39
52249;BME280;38541;48.130;8.378;2023-08-20T01:15:42;93278.69;;;19.27;71.36
52249;BME280;38541;48.130;8.378;2023-08-20T01:18:09;93280.34;;;19.23;71.25
52249;BME280;38541;48.130;8.378;2023-08-20T01:20:40;93286.59;;;19.18;71.75
52249;BME280;38541;48.130;8.378;2023-08-20T01:23:29;93282.97;;;19.14;72.04
52249;BME280;38541;48.130;8.378;2023-08-20T01:28:35;93287.63;;;19.08;73.47
52249;BME280;38541;48.130;8.378;2023-08-20T01:31:03;93286.63;;;19.04;73.56
52249;BME280;38541;48.130;8.378;2023-08-20T01:33:30;93286.16;;;19.02;73.74
52249;BME280;38541;48.130;8.378;2023-08-20T01:35:57;93290.72;;;19.02;73.58
52249;BME280;38541;48.130;8.378;2023-08-20T01:38:24;93284.78;;;19.05;73.41
52249;BME280;38541;48.130;8.378;2023-08-20T01:40:50;93288.25;;;19.05;73.54
52249;BME280;38541;48.130;8.378;2023-08-20T01:43:17;93288.25;;;19.05;73.60
52249;BME280;38541;48.130;8.378;2023-08-20T01:45:43;93285.06;;;19.03;73.36
52249;BME280;38541;48.130;8.378;2023-08-20T01:48:10;93286.25;;;18.97;72.94
52249;BME280;38541;48.130;8.378;2023-08-20T01:50:37;93286.06;;;18.93;73.41
52249;BME280;38541;48.130;8.378;2023-08-20T01:53:03;93281.66;;;18.89;72.65
52249;BME280;38541;48.130;8.378;2023-08-20T01:55:30;93277.41;;;18.88;72.74
52249;BME280;38541;48.130;8.378;2023-08-20T01:57:58;93285.88;;;18.90;73.13
52249;BME280;38541;48.130;8.378;2023-08-20T02:00:25;93285.69;;;18.86;72.99
52249;BME280;38541;48.130;8.378;2023-08-20T02:02:52;93286.59;;;18.81;72.79
52249;BME280;38541;48.130;8.378;2023-08-20T02:05:19;93292.50;;;18.78;73.01
52249;BME280;38541;48.130;8.378;2023-08-20T02:07:46;93290.94;;;18.77;72.81
52249;BME280;38541;48.130;8.378;2023-08-20T02:10:13;93296.38;;;18.72;73.78
52249;BME280;38541;48.130;8.378;2023-08-20T02:12:40;93297.28;;;18.67;74.30
52249;BME280;38541;48.130;8.378;2023-08-20T02:15:08;93305.75;;;18.70;74.65
52249;BME280;38541;48.130;8.378;2023-08-20T02:17:34;93300.72;;;18.68;74.50
52249;BME280;38541;48.130;8.378;2023-08-20T02:20:03;93307.91;;;18.67;74.43
52249;BME280;38541;48.130;8.378;2023-08-20T02:22:31;93313.03;;;18.64;74.86
52249;BME280;38541;48.130;8.378;2023-08-20T02:24:57;93320.53;;;18.62;74.48
52249;BME280;38541;48.130;8.378;2023-08-20T02:27:24;93322.22;;;18.58;74.40
52249;BME280;38541;48.130;8.378;2023-08-20T02:29:50;93323.91;;;18.53;74.78
52249;BME280;38541;48.130;8.378;2023-08-20T02:32:17;93325.38;;;18.60;75.94
52249;BME280;38541;48.130;8.378;2023-08-20T02:34:49;93324.28;;;18.61;76.21
52249;BME280;38541;48.130;8.378;2023-08-20T02:37:16;93320.53;;;18.62;75.98
52249;BME280;38541;48.130;8.378;2023-08-20T02:39:43;93318.97;;;18.61;76.50
52249;BME280;38541;48.130;8.378;2023-08-20T02:42:10;93318.19;;;18.60;75.20
52249;BME280;38541;48.130;8.378;2023-08-20T02:44:36;93313.47;;;18.57;75.37
52249;BME280;38541;48.130;8.378;2023-08-20T02:47:03;93317.19;;;18.56;75.01
52249;BME280;38541;48.130;8.378;2023-08-20T02:49:30;93312.47;;;18.53;74.86
52249;BME280;38541;48.130;8.378;2023-08-20T02:51:56;93310.13;;;18.51;74.96
52249;BME280;38541;48.130;8.378;2023-08-20T02:54:23;93309.50;;;18.54;74.89
52249;BME280;38541;48.130;8.378;2023-08-20T02:56:49;93318.88;;;18.52;74.53
52249;BME280;38541;48.130;8.378;2023-08-20T02:59:16;93311.28;;;18.45;74.09
52249;BME280;38541;48.130;8.378;2023-08-20T03:01:42;93308.13;;;18.43;74.49
52249;BME280;38541;48.130;8.378;2023-08-20T03:04:09;93308.34;;;18.47;74.72
52249;BME280;38541;48.130;8.378;2023-08-20T03:06:36;93305.47;;;18.43;74.96
52249;BME280;38541;48.130;8.378;2023-08-20T03:09:03;93304.97;;;18.41;75.05
52249;BME280;38541;48.130;8.378;2023-08-20T03:11:30;93301.84;;;18.39;75.61
52249;BME280;38541;48.130;8.378;2023-08-20T03:13:57;93308.72;;;18.40;76.09
52249;BME280;38541;48.130;8.378;2023-08-20T03:16:23;93304.50;;;18.39;76.16
52249;BME280;38541;48.130;8.378;2023-08-20T03:18:50;93301.84;;;18.39;75.96
52249;BME280;38541;48.130;8.378;2023-08-20T03:21:16;93300.25;;;18.38;76.29
52249;BME280;38541;48.130;8.378;2023-08-20T03:23:43;93303.41;;;18.40;76.16
52249;BME280;38541;48.130;8.378;2023-08-20T03:26:09;93294.66;;;18.39;75.63
52249;BME280;38541;48.130;8.378;2023-08-20T03:28:36;93297.31;;;18.39;75.03
52249;BME280;38541;48.130;8.378;2023-08-20T03:31:03;93299.88;;;18.45;75.43
52249;BME280;38541;48.130;8.378;2023-08-20T03:33:34;93294.94;;;18.38;74.37
52249;BME280;38541;48.130;8.378;2023-08-20T03:36:01;93292.47;;;18.42;74.64
52249;BME280;38541;48.130;8.378;2023-08-20T03:38:27;93295.31;;;18.45;74.70
52249;BME280;38541;48.130;8.378;2023-08-20T03:40:54;93287.44;;;18.40;74.29
52249;BME280;38541;48.130;8.378;2023-08-20T03:43:21;93287.56;;;18.35;74.37
52249;BME280;38541;48.130;8.378;2023-08-20T03:45:51;93283.91;;;18.31;74.93
52249;BME280;38541;48.130;8.378;2023-08-20T03:48:18;93281.53;;;18.29;75.02
52249;BME280;38541;48.130;8.378;2023-08-20T03:50:44;93287.66;;;18.30;74.49
52249;BME280;38541;48.130;8.378;2023-08-20T03:53:11;93284.00;;;18.25;74.95
52249;BME280;38541;48.130;8.378;2023-08-20T03:55:37;93287.66;;;18.30;74.73
52249;BME280;38541;48.130;8.378;2023-08-20T03:58:04;93279.69;;;18.30;74.67
52249;BME280;38541;48.130;8.378;2023-08-20T04:00:30;93284.59;;;18.22;74.27
52249;BME280;38541;48.130;8.378;2023-08-20T04:02:57;93283.34;;;18.20;74.58
52249;BME280;38541;48.130;8.378;2023-08-20T04:05:24;93279.38;;;18.17;74.38
52249;BME280;38541;48.130;8.378;2023-08-20T04:07:50;93286.97;;;18.10;73.89
52249;BME280;38541;48.130;8.378;2023-08-20T04:10:19;93287.56;;;18.07;74.21
52249;BME280;38541;48.130;8.378;2023-08-20T04:12:46;93287.06;;;18.05;74.68
52249;BME280;38541;48.130;8.378;2023-08-20T04:15:12;93287.66;;;18.02;74.91
52249;BME280;38541;48.130;8.378;2023-08-20T04:17:39;93291.88;;;18.03;75.93
52249;BME280;38541;48.130;8.378;2023-08-20T04:20:06;93301.44;;;18.04;77.14
52249;BME280;38541;48.130;8.378;2023-08-20T04:22:35;93295.63;;;18.02;77.58
52249;BME280;38541;48.130;8.378;2023-08-20T04:25:04;93295.09;;;18.00;77.64
52249;BME280;38541;48.130;8.378;2023-08-20T04:27:32;93299.94;;;17.97;77.12
52249;BME280;38541;48.130;8.378;2023-08-20T04:30:00;93294.31;;;17.99;77.90
52249;BME280;38541;48.130;8.378;2023-08-20T04:32:27;93301.44;;;18.04;77.47
52249;BME280;38541;48.130;8.378;2023-08-20T04:34:54;93294.03;;;18.01;76.78
52249;BME280;38541;48.130;8.378;2023-08-20T04:37:22;93298.28;;;18.02;77.62
52249;BME280;38541;48.130;8.378;2023-08-20T04:39:50;93304.59;;;18.06;78.66
52249;BME280;38541;48.130;8.378;2023-08-20T04:42:16;93303.00;;;18.05;78.56
52249;BME280;38541;48.130;8.378;2023-08-20T04:44:44;93301.44;;;18.04;77.44
52249;BME280;38541;48.130;8.378;2023-08-20T04:47:12;93300.66;;;18.03;76.46
52249;BME280;38541;48.130;8.378;2023-08-20T04:49:39;93296.13;;;18.04;76.49
52249;BME280;38541;48.130;8.378;2023-08-20T04:52:06;93294.75;;;18.06;76.50
52249;BME280;38541;48.130;8.378;2023-08-20T04:54:32;93303.22;;;18.08;76.43
52249;BME280;38541;48.130;8.378;2023-08-20T04:57:01;93302.41;;;18.08;76.55
52249;BME280;38541;48.130;8.378;2023-08-20T04:59:28;93299.19;;;18.11;77.13
52249;BME280;38541;48.130;8.378;2023-08-20T05:02:00;93295.84;;;18.19;77.04
52249;BME280;38541;48.130;8.378;2023-08-20T05:04:38;93296.03;;;18.23;77.05
52249;BME280;38541;48.130;8.378;2023-08-20T05:07:04;93298.31;;;18.30;77.19
52249;BME280;38541;48.130;8.378;2023-08-20T05:09:32;93303.03;;;18.33;77.46
52249;BME280;38541;48.130;8.378;2023-08-20T05:11:59;93300.75;;;18.40;77.67
52249;BME280;38541;48.130;8.378;2023-08-20T05:14:25;93308.06;;;18.48;77.78
52249;BME280;38541;48.130;8.378;2023-08-20T05:16:52;93307.34;;;18.57;77.38
52249;BME280;38541;48.130;8.378;2023-08-20T05:19:19;93306.13;;;18.63;77.40
52249;BME280;38541;48.130;8.378;2023-08-20T05:21:45;93311.38;;;18.68;77.37
52249;BME280;38541;48.130;8.378;2023-08-20T05:24:12;93306.53;;;18.70;77.79
52249;BME280;38541;48.130;8.378;2023-08-20T05:26:40;93319.72;;;18.75;77.44
52249;BME280;38541;48.130;8.378;2023-08-20T05:29:06;93311.75;;;18.75;78.10
52249;BME280;38541;48.130;8.378;2023-08-20T05:31:33;93310.66;;;18.76;78.32
52249;BME280;38541;48.130;8.378;2023-08-20T05:34:00;93318.03;;;18.79;78.75
52249;BME280;38541;48.130;8.378;2023-08-20T05:36:26;93315.25;;;18.85;78.68
52249;BME280;38541;48.130;8.378;2023-08-20T05:38:53;93318.31;;;18.92;78.61
52249;BME280;38541;48.130;8.378;2023-08-20T05:41:19;93320.28;;;19.00;79.15
52249;BME280;38541;48.130;8.378;2023-08-20T05:43:49;93321.44;;;19.08;79.09
52249;BME280;38541;48.130;8.378;2023-08-20T05:46:15;93314.34;;;19.17;78.87
52249;BME280;38541;48.130;8.378;2023-08-20T05:48:42;93314.69;;;19.24;78.63
52249;BME280;38541;48.130;8.378;2023-08-20T05:51:09;93304.59;;;19.35;78.38
52249;BME280;38541;48.130;8.378;2023-08-20T05:53:38;93307.00;;;19.46;78.96
52249;BME280;38541;48.130;8.378;2023-08-20T05:56:05;93313.19;;;19.55;79.42
52249;BME280;38541;48.130;8.378;2023-08-20T05:58:31;93309.41;;;19.56;78.77
52249;BME280;38541;48.130;8.378;2023-08-20T06:00:58;93319.91;;;19.52;78.76
52249;BME280;38541;48.130;8.378;2023-08-20T06:03:25;93313.19;;;19.55;79.08
52249;BME280;38541;48.130;8.378;2023-08-20T06:05:51;93316.69;;;19.64;79.09
52249;BME280;38541;48.130;8.378;2023-08-20T06:08:18;93319.22;;;19.70;79.53
52249;BME280;38541;48.130;8.378;2023-08-20T06:10:45;93322.84;;;19.74;78.88
52249;BME280;38541;48.130;8.378;2023-08-20T06:13:11;93321.75;;;19.75;78.71
52249;BME280;38541;48.130;8.378;2023-08-20T06:15:38;93317.38;;;19.79;78.75
52249;BME280;38541;48.130;8.378;2023-08-20T06:18:04;93322.13;;;19.82;78.42
52249;BME280;38541;48.130;8.378;2023-08-20T06:20:31;93321.50;;;19.85;79.11
52249;BME280;38541;48.130;8.378;2023-08-20T06:22:57;93331.38;;;19.85;79.40
52249;BME280;38541;48.130;8.378;2023-08-20T06:25:24;93326.84;;;19.85;79.63
52249;BME280;38541;48.130;8.378;2023-08-20T06:27:50;93327.81;;;19.89;79.62
52249;BME280;38541;48.130;8.378;2023-08-20T06:30:17;93324.03;;;19.90;80.62
52249;BME280;38541;48.130;8.378;2023-08-20T06:32:44;93315.94;;;19.95;80.63
52249;BME280;38541;48.130;8.378;2023-08-20T06:35:11;93325.22;;;19.98;81.40
52249;BME280;38541;48.130;8.378;2023-08-20T06:37:40;93335.44;;;20.05;81.74
52249;BME280;38541;48.130;8.378;2023-08-20T06:40:07;93330.00;;;20.19;81.50
52249;BME280;38541;48.130;8.378;2023-08-20T06:42:34;93331.63;;;20.29;81.08
52249;BME280;38541;48.130;8.378;2023-08-20T06:45:04;93334.63;;;20.36;80.97
52249;BME280;38541;48.130;8.378;2023-08-20T06:47:30;93336.84;;;20.43;80.89
52249;BME280;38541;48.130;8.378;2023-08-20T06:49:57;93338.59;;;20.47;81.48
52249;BME280;38541;48.130;8.378;2023-08-20T06:52:23;93339.72;;;20.55;81.27
52249;BME280;38541;48.130;8.378;2023-08-20T06:54:50;93337.06;;;20.64;81.16
52249;BME280;38541;48.130;8.378;2023-08-20T06:57:16;93340.25;;;20.75;81.45
52249;BME280;38541;48.130;8.378;2023-08-20T06:59:43;93345.00;;;20.87;81.73
52249;BME280;38541;48.130;8.378;2023-08-20T07:02:10;93343.63;;;20.98;81.77
52249;BME280;38541;48.130;8.378;2023-08-20T07:04:37;93347.06;;;21.07;81.98
52249;BME280;38541;48.130;8.378;2023-08-20T07:07:03;93343.63;;;21.16;81.75
52249;BME280;38541;48.130;8.378;2023-08-20T07:09:34;93344.88;;;21.27;81.92
52249;BME280;38541;48.130;8.378;2023-08-20T07:12:01;93348.34;;;21.36;81.61
52249;BME280;38541;48.130;8.378;2023-08-20T07:14:27;93350.88;;;21.42;81.04
52249;BME280;38541;48.130;8.378;2023-08-20T07:16:54;93351.66;;;21.51;80.64
52249;BME280;38541;48.130;8.378;2023-08-20T07:19:20;93356.66;;;21.61;80.63
52249;BME280;38541;48.130;8.378;2023-08-20T07:21:47;93352.75;;;21.67;81.51
52249;BME280;38541;48.130;8.378;2023-08-20T07:24:14;93356.69;;;21.79;81.76
52249;BME280;38541;48.130;8.378;2023-08-20T07:26:40;93353.69;;;21.89;81.39
52249;BME280;38541;48.130;8.378;2023-08-20T07:29:07;93356.19;;;21.94;81.26
52249;BME280;38541;48.130;8.378;2023-08-20T07:31:33;93354.13;;;22.00;80.52
52249;BME280;38541;48.130;8.378;2023-08-20T07:34:01;93363.25;;;22.08;80.40
52249;BME280;38541;48.130;8.378;2023-08-20T07:36:31;93364.91;;;22.21;79.99
52249;BME280;38541;48.130;8.378;2023-08-20T07:38:59;93363.00;;;22.31;78.88
52249;BME280;38541;48.130;8.378;2023-08-20T07:41:28;93361.56;;;22.33;77.92
52249;BME280;38541;48.130;8.378;2023-08-20T07:43:54;93367.06;;;22.37;76.22
52249;BME280;38541;48.130;8.378;2023-08-20T07:46:21;93363.28;;;22.38;74.77
52249;BME280;38541;48.130;8.378;2023-08-20T07:48:47;93366.88;;;22.51;73.63
52249;BME280;38541;48.130;8.378;2023-08-20T07:51:14;93363.41;;;22.59;72.94
52249;BME280;38541;48.130;8.378;2023-08-20T07:53:40;93373.63;;;22.66;72.14
52249;BME280;38541;48.130;8.378;2023-08-20T07:56:07;93371.97;;;22.74;71.08
52249;BME280;38541;48.130;8.378;2023-08-20T07:58:35;93375.88;;;22.85;72.16
52249;BME280;38541;48.130;8.378;2023-08-20T08:01:01;93377.72;;;22.93;72.39
52249;BME280;38541;48.130;8.378;2023-08-20T08:03:28;93373.75;;;23.00;71.54
52249;BME280;38541;48.130;8.378;2023-08-20T08:05:54;93377.34;;;23.04;70.88
52249;BME280;38541;48.130;8.378;2023-08-20T08:08:22;93380.63;;;23.09;70.93
52249;BME280;38541;48.130;8.378;2023-08-20T08:10:49;93382.78;;;23.16;70.47
52249;BME280;38541;48.130;8.378;2023-08-20T08:13:21;93388.09;;;23.25;69.83
52249;BME280;38541;48.130;8.378;2023-08-20T08:15:48;93377.66;;;23.32;69.38
52249;BME280;38541;48.130;8.378;2023-08-20T08:18:15;93377.91;;;23.40;68.86
52249;BME280;38541;48.130;8.378;2023-08-20T08:20:42;93376.63;;;23.46;67.89
52249;BME280;38541;48.130;8.378;2023-08-20T08:23:08;93379.88;;;23.51;67.14
52249;BME280;38541;48.130;8.378;2023-08-20T08:25:35;93383.13;;;23.57;67.02
52249;BME280;38541;48.130;8.378;2023-08-20T08:28:02;93382.63;;;23.64;67.00
52249;BME280;38541;48.130;8.378;2023-08-20T08:30:29;93383.19;;;23.70;66.89
52249;BME280;38541;48.130;8.378;2023-08-20T08:32:56;93385.69;;;23.75;66.43
52249;BME280;38541;48.130;8.378;2023-08-20T08:35:22;93383.44;;;23.77;66.59
52249;BME280;38541;48.130;8.378;2023-08-20T08:37:49;93382.47;;;23.82;66.24
52249;BME280;38541;48.130;8.378;2023-08-20T08:40:16;93379.25;;;23.88;66.18
52249;BME280;38541;48.130;8.378;2023-08-20T08:42:42;93377.47;;;23.92;65.58
52249;BME280;38541;48.130;8.378;2023-08-20T08:45:09;93378.22;;;24.02;65.52
52249;BME280;38541;48.130;8.378;2023-08-20T08:47:39;93374.50;;;24.06;65.39
52249;BME280;38541;48.130;8.378;2023-08-20T08:50:06;93375.09;;;24.12;64.95
52249;BME280;38541;48.130;8.378;2023-08-20T08:52:34;93374.69;;;24.22;63.73
52249;BME280;38541;48.130;8.378;2023-08-20T08:55:03;93372.56;;;24.28;64.32
52249;BME280;38541;48.130;8.378;2023-08-20T08:57:30;93375.81;;;24.34;63.75
52249;BME280;38541;48.130;8.378;2023-08-20T08:59:57;93383.66;;;24.39;63.82
52249;BME280;38541;48.130;8.378;2023-08-20T09:02:23;93387.47;;;24.50;62.70
52249;BME280;38541;48.130;8.378;2023-08-20T09:04:50;93382.78;;;24.60;62.43
52249;BME280;38541;48.130;8.378;2023-08-20T09:07:18;93386.81;;;24.66;60.85
52249;BME280;38541;48.130;8.378;2023-08-20T09:09:45;93378.53;;;24.71;61.00
52249;BME280;38541;48.130;8.378;2023-08-20T09:12:16;93387.31;;;24.81;60.42
52249;BME280;38541;48.130;8.378;2023-08-20T09:14:48;93378.34;;;24.89;59.26
52249;BME280;38541;48.130;8.378;2023-08-20T09:17:16;93379.47;;;25.00;60.79
52249;BME280;38541;48.130;8.378;2023-08-20T09:19:44;93381.22;;;25.08;58.87
52249;BME280;38541;48.130;8.378;2023-08-20T09:22:14;93383.72;;;25.14;58.21
52249;BME280;38541;48.130;8.378;2023-08-20T09:24:45;93384.59;;;25.18;58.00
52249;BME280;38541;48.130;8.378;2023-08-20T09:27:13;93383.22;;;25.24;58.02
52249;BME280;38541;48.130;8.378;2023-08-20T09:29:50;93379.66;;;25.32;58.07
52249;BME280;38541;48.130;8.378;2023-08-20T09:32:22;93381.84;;;25.43;61.03
52249;BME280;38541;48.130;8.378;2023-08-20T09:34:51;93382.72;;;25.47;60.70
52249;BME280;38541;48.130;8.378;2023-08-20T09:37:19;93385.66;;;25.54;60.70
52249;BME280;38541;48.130;8.378;2023-08-20T09:39:55;93377.78;;;25.61;59.00
52249;BME280;38541;48.130;8.378;2023-08-20T09:42:46;93386.84;;;25.69;59.38
52249;BME280;38541;48.130;8.378;2023-08-20T09:45:13;93384.69;;;25.75;59.74
52249;BME280;38541;48.130;8.378;2023-08-20T09:47:41;93384.00;;;25.78;59.31
52249;BME280;38541;48.130;8.378;2023-08-20T09:50:10;93385.25;;;25.81;58.31
52249;BME280;38541;48.130;8.378;2023-08-20T09:52:39;93383.06;;;25.86;57.36
52249;BME280;38541;48.130;8.378;2023-08-20T09:55:21;93383.38;;;25.97;57.43
52249;BME280;38541;48.130;8.378;2023-08-20T09:57:48;93391.97;;;26.03;57.53
52249;BME280;38541;48.130;8.378;2023-08-20T10:00:15;93384.09;;;26.10;57.58
52249;BME280;38541;48.130;8.378;2023-08-20T10:02:42;93390.56;;;26.21;56.65
52249;BME280;38541;48.130;8.378;2023-08-20T10:05:10;93390.78;;;26.29;56.32
52249;BME280;38541;48.130;8.378;2023-08-20T10:07:38;93384.44;;;26.37;56.39
52249;BME280;38541;48.130;8.378;2023-08-20T10:10:09;93384.84;;;26.39;55.60
52249;BME280;38541;48.130;8.378;2023-08-20T10:12:38;93387.31;;;26.44;55.09
52249;BME280;38541;48.130;8.378;2023-08-20T10:15:09;93383.75;;;26.56;54.70
52249;BME280;38541;48.130;8.378;2023-08-20T10:17:37;93390.53;;;26.66;55.38
52249;BME280;38541;48.130;8.378;2023-08-20T10:20:06;93395.81;;;26.78;55.93
52249;BME280;38541;48.130;8.378;2023-08-20T10:22:38;93392.38;;;26.94;56.07
52249;BME280;38541;48.130;8.378;2023-08-20T10:25:06;93392.69;;;27.09;55.88
52249;BME280;38541;48.130;8.378;2023-08-20T10:27:36;93397.28;;;27.24;54.19
52249;BME280;38541;48.130;8.378;2023-08-20T10:30:11;93392.31;;;27.26;54.08
52249;BME280;38541;48.130;8.378;2023-08-20T10:32:50;93391.50;;;27.42;51.79
52249;BME280;38541;48.130;8.378;2023-08-20T10:35:28;93395.44;;;27.64;52.09
52249;BME280;38541;48.130;8.378;2023-08-20T10:38:04;93391.25;;;27.86;54.05
52249;BME280;38541;48.130;8.378;2023-08-20T10:43:48;93395.09;;;28.25;53.63
52249;BME280;38541;48.130;8.378;2023-08-20T10:46:16;93384.63;;;28.43;53.34
52249;BME280;38541;48.130;8.378;2023-08-20T10:48:48;93387.44;;;28.50;51.99
52249;BME280;38541;48.130;8.378;2023-08-20T10:51:36;93386.63;;;28.50;52.37
52249;BME280;38541;48.130;8.378;2023-08-20T10:54:05;93379.31;;;28.73;52.16
52249;BME280;38541;48.130;8.378;2023-08-20T10:59:09;93381.75;;;29.05;49.62
52249;BME280;38541;48.130;8.378;2023-08-20T11:01:36;93372.22;;;29.15;49.00
52249;BME280;38541;48.130;8.378;2023-08-20T11:04:03;93373.91;;;29.24;48.67
52249;BME280;38541;48.130;8.378;2023-08-20T11:06:33;93380.69;;;29.41;50.36
52249;BME280;38541;48.130;8.378;2023-08-20T11:09:01;93374.03;;;29.61;49.32
52249;BME280;38541;48.130;8.378;2023-08-20T11:11:29;93379.63;;;29.76;50.17
52249;BME280;38541;48.130;8.378;2023-08-20T11:13:56;93377.84;;;29.87;48.76
52249;BME280;38541;48.130;8.378;2023-08-20T11:16:23;93380.56;;;29.91;48.75
52249;BME280;38541;48.130;8.378;2023-08-20T11:18:52;93380.72;;;30.02;49.18
52249;BME280;38541;48.130;8.378;2023-08-20T11:21:19;93384.28;;;30.10;47.25
52249;BME280;38541;48.130;8.378;2023-08-20T11:23:46;93376.19;;;30.13;46.62
52249;BME280;38541;48.130;8.378;2023-08-20T11:26:17;93375.19;;;30.29;47.63
52249;BME280;38541;48.130;8.378;2023-08-20T11:28:46;93375.72;;;30.42;47.74
52249;BME280;38541;48.130;8.378;2023-08-20T11:31:13;93378.06;;;30.43;45.56
52249;BME280;38541;48.130;8.378;2023-08-20T11:33:40;93376.50;;;30.42;47.74
52249;BME280;38541;48.130;8.378;2023-08-20T11:36:06;93374.66;;;30.54;45.91
52249;BME280;38541;48.130;8.378;2023-08-20T11:38:33;93363.94;;;30.27;45.24
52249;BME280;38541;48.130;8.378;2023-08-20T11:41:00;93370.72;;;30.48;46.17
52249;BME280;38541;48.130;8.378;2023-08-20T11:43:27;93370.97;;;30.73;46.43
52249;BME280;38541;48.130;8.378;2023-08-20T11:45:55;93373.88;;;31.02;47.34
52249;BME280;38541;48.130;8.378;2023-08-20T11:48:22;93371.25;;;31.13;45.22
52249;BME280;38541;48.130;8.378;2023-08-20T11:50:51;93377.47;;;31.13;43.68
52249;BME280;38541;48.130;8.378;2023-08-20T11:53:22;93371.91;;;30.95;44.56
52249;BME280;38541;48.130;8.378;2023-08-20T11:55:51;93379.72;;;30.59;47.86
52249;BME280;38541;48.130;8.378;2023-08-20T11:58:18;93371.06;;;30.42;45.62
52249;BME280;38541;48.130;8.378;2023-08-20T12:00:48;93365.28;;;30.06;45.91
52249;BME280;38541;48.130;8.378;2023-08-20T12:03:18;93362.72;;;30.21;46.49
52249;BME280;38541;48.130;8.378;2023-08-20T12:05:44;93377.31;;;30.50;45.07
52249;BME280;38541;48.130;8.378;2023-08-20T12:08:15;93365.16;;;30.71;45.03
52249;BME280;38541;48.130;8.378;2023-08-20T12:10:43;93371.91;;;30.95;45.36
52249;BME280;38541;48.130;8.378;2023-08-20T12:13:09;93364.75;;;31.21;44.71
52249;BME280;38541;48.130;8.378;2023-08-20T12:15:36;93365.97;;;31.35;43.93
52249;BME280;38541;48.130;8.378;2023-08-20T12:18:04;93362.97;;;31.54;44.13
52249;BME280;38541;48.130;8.378;2023-08-20T12:20:34;93365.00;;;31.72;45.20
52249;BME280;38541;48.130;8.378;2023-08-20T12:23:03;93352.63;;;31.78;42.02
52249;BME280;38541;48.130;8.378;2023-08-20T12:25:32;93353.09;;;31.95;42.30
52249;BME280;38541;48.130;8.378;2023-08-20T12:28:01;93359.25;;;31.92;41.98
52249;BME280;38541;48.130;8.378;2023-08-20T12:30:30;93357.38;;;32.10;42.76
52249;BME280;38541;48.130;8.378;2023-08-20T12:32:56;93357.44;;;32.32;41.30
52249;BME280;38541;48.130;8.378;2023-08-20T12:35:23;93355.91;;;32.35;41.64
52249;BME280;38541;48.130;8.378;2023-08-20T12:37:49;93351.25;;;32.42;41.38
52249;BME280;38541;48.130;8.378;2023-08-20T12:40:16;93355.94;;;32.53;40.74
52249;BME280;38541;48.130;8.378;2023-08-20T12:42:43;93347.78;;;32.71;39.49
52249;BME280;38541;48.130;8.378;2023-08-20T12:45:10;93342.75;;;32.91;40.56
52249;BME280;38541;48.130;8.378;2023-08-20T12:47:39;93339.22;;;33.16;41.71
52249;BME280;38541;48.130;8.378;2023-08-20T12:50:06;93341.16;;;33.12;40.20
52249;BME280;38541;48.130;8.378;2023-08-20T12:52:33;93343.47;;;33.17;39.62
52249;BME280;38541;48.130;8.378;2023-08-20T12:55:00;93334.50;;;33.35;38.38
52249;BME280;38541;48.130;8.378;2023-08-20T12:57:26;93337.50;;;33.69;39.44
52249;BME280;38541;48.130;8.378;2023-08-20T12:59:53;93338.56;;;33.94;38.43
52249;BME280;38541;48.130;8.378;2023-08-20T13:02:19;93331.13;;;34.09;38.88
52249;BME280;38541;48.130;8.378;2023-08-20T13:04:47;93332.88;;;34.37;38.73
52249;BME280;38541;48.130;8.378;2023-08-20T13:07:14;93332.00;;;34.59;38.71
52249;BME280;38541;48.130;8.378;2023-08-20T13:09:41;93329.28;;;34.55;36.51
52249;BME280;38541;48.130;8.378;2023-08-20T13:12:09;93329.16;;;34.73;36.05
52249;BME280;38541;48.130;8.378;2023-08-20T13:14:40;93322.31;;;34.47;37.40
52249;BME280;38541;48.130;8.378;2023-08-20T13:17:07;93332.50;;;34.39;36.97